sensor_id;sensor_type;location;lat;lon;timestamp;temperature;humidity
43185;DHT22;28803;52.308;19.096;2022-07-29T00:02:25;12.10;99.90
43185;DHT22;28803;52.308;19.096;2022-07-29T00:04:53;12.10;99.90
43185;DHT22;28803;52.308;19.096;2022-07-29T00:07:20;12.10;99.90
43185;DHT22;28803;52.308;19.096;2022-07-29T00:09:47;12.10;99.90
43185;DHT22;28803;52.308;19.096;2022-07-29T00:12:20;12.10;99.90
43185;DHT22;28803;52.308;19.096;2022-07-29T00:14:55;12.10;99.90
43185;DHT22;28803;52.308;19.096;2022-07-29T00:17:23;12.10;99.90
43185;DHT22;28803;52.308;19.096;2022-07-29T00:19:50;12.00;99.90
43185;DHT22;28803;52.308;19.096;2022-07-29T00:22:18;11.90;99.90
43185;DHT22;28803;52.308;19.096;2022-07-29T00:24:47;11.90;99.90
43185;DHT22;28803;52.308;19.096;2022-07-29T00:27:15;11.80;99.90
43185;DHT22;28803;52.308;19.096;2022-07-29T00:29:42;11.90;99.90
43185;DHT22;28803;52.308;19.096;2022-07-29T00:32:10;11.90;99.90
43185;DHT22;28803;52.308;19.096;2022-07-29T00:34:37;11.80;99.90
43185;DHT22;28803;52.308;19.096;2022-07-29T00:37:23;11.80;99.90
43185;DHT22;28803;52.308;19.096;2022-07-29T00:39:50;11.70;99.90
43185;DHT22;28803;52.308;19.096;2022-07-29T00:42:17;11.70;99.90
43185;DHT22;28803;52.308;19.096;2022-07-29T00:44:44;11.60;99.90
43185;DHT22;28803;52.308;19.096;2022-07-29T00:47:11;11.70;99.90
43185;DHT22;28803;52.308;19.096;2022-07-29T00:49:40;11.70;99.90
43185;DHT22;28803;52.308;19.096;2022-07-29T00:52:09;11.70;99.90
43185;DHT22;28803;52.308;19.096;2022-07-29T00:54:38;11.70;99.90
43185;DHT22;28803;52.308;19.096;2022-07-29T00:57:12;11.80;99.90
43185;DHT22;28803;52.308;19.096;2022-07-29T00:59:39;11.70;99.90
43185;DHT22;28803;52.308;19.096;2022-07-29T01:02:06;11.70;99.90
43185;DHT22;28803;52.308;19.096;2022-07-29T01:04:34;11.70;99.90
43185;DHT22;28803;52.308;19.096;2022-07-29T01:07:02;11.60;99.90
43185;DHT22;28803;52.308;19.096;2022-07-29T01:09:32;11.70;99.90
43185;DHT22;28803;52.308;19.096;2022-07-29T01:12:22;11.60;99.90
43185;DHT22;28803;52.308;19.096;2022-07-29T01:14:50;11.60;99.90
43185;DHT22;28803;52.308;19.096;2022-07-29T01:17:33;11.70;99.90
43185;DHT22;28803;52.308;19.096;2022-07-29T01:23:08;11.80;99.90
43185;DHT22;28803;52.308;19.096;2022-07-29T01:25:54;11.80;99.90
43185;DHT22;28803;52.308;19.096;2022-07-29T01:31:11;11.90;99.90
43185;DHT22;28803;52.308;19.096;2022-07-29T01:34:02;11.80;99.90
43185;DHT22;28803;52.308;19.096;2022-07-29T01:36:40;11.80;99.90
43185;DHT22;28803;52.308;19.096;2022-07-29T01:39:34;11.80;99.90
43185;DHT22;28803;52.308;19.096;2022-07-29T01:42:09;11.70;99.90
43185;DHT22;28803;52.308;19.096;2022-07-29T01:44:55;11.70;99.90
43185;DHT22;28803;52.308;19.096;2022-07-29T01:47:26;11.60;99.90
43185;DHT22;28803;52.308;19.096;2022-07-29T01:49:59;11.60;99.90
43185;DHT22;28803;52.308;19.096;2022-07-29T01:52:49;11.50;99.90
43185;DHT22;28803;52.308;19.096;2022-07-29T01:55:22;11.40;99.90
43185;DHT22;28803;52.308;19.096;2022-07-29T01:57:51;11.40;99.90
43185;DHT22;28803;52.308;19.096;2022-07-29T02:00:18;11.40;99.90
43185;DHT22;28803;52.308;19.096;2022-07-29T02:02:47;11.30;99.90
43185;DHT22;28803;52.308;19.096;2022-07-29T02:05:17;11.30;99.90
43185;DHT22;28803;52.308;19.096;2022-07-29T02:07:47;11.20;99.90
43185;DHT22;28803;52.308;19.096;2022-07-29T02:10:17;11.20;99.90
43185;DHT22;28803;52.308;19.096;2022-07-29T02:12:54;11.10;99.90
43185;DHT22;28803;52.308;19.096;2022-07-29T02:15:24;11.10;99.90
43185;DHT22;28803;52.308;19.096;2022-07-29T02:17:58;11.10;99.90
43185;DHT22;28803;52.308;19.096;2022-07-29T02:20:28;11.10;99.90
43185;DHT22;28803;52.308;19.096;2022-07-29T02:22:57;11.00;99.90
43185;DHT22;28803;52.308;19.096;2022-07-29T02:25:26;10.90;99.90
43185;DHT22;28803;52.308;19.096;2022-07-29T02:28:05;10.80;99.90
43185;DHT22;28803;52.308;19.096;2022-07-29T02:30:36;10.70;99.90
43185;DHT22;28803;52.308;19.096;2022-07-29T02:33:08;10.60;99.90
43185;DHT22;28803;52.308;19.096;2022-07-29T02:35:36;10.60;99.90
43185;DHT22;28803;52.308;19.096;2022-07-29T02:38:03;10.60;99.90
43185;DHT22;28803;52.308;19.096;2022-07-29T02:40:50;10.50;99.90
43185;DHT22;28803;52.308;19.096;2022-07-29T02:43:22;10.50;99.90
43185;DHT22;28803;52.308;19.096;2022-07-29T02:45:53;10.40;99.90
43185;DHT22;28803;52.308;19.096;2022-07-29T02:48:32;10.40;99.90
43185;DHT22;28803;52.308;19.096;2022-07-29T02:51:13;10.40;99.90
43185;DHT22;28803;52.308;19.096;2022-07-29T02:54:05;10.40;99.90
43185;DHT22;28803;52.308;19.096;2022-07-29T02:56:34;10.40;99.90
43185;DHT22;28803;52.308;19.096;2022-07-29T02:59:06;10.40;99.90
43185;DHT22;28803;52.308;19.096;2022-07-29T03:01:35;10.40;99.90
43185;DHT22;28803;52.308;19.096;2022-07-29T03:04:04;10.30;99.90
43185;DHT22;28803;52.308;19.096;2022-07-29T03:06:33;10.30;99.90
43185;DHT22;28803;52.308;19.096;2022-07-29T03:09:07;10.40;99.90
43185;DHT22;28803;52.308;19.096;2022-07-29T03:11:40;10.40;99.90
43185;DHT22;28803;52.308;19.096;2022-07-29T03:14:18;10.40;99.90
43185;DHT22;28803;52.308;19.096;2022-07-29T03:16:47;10.40;99.90
43185;DHT22;28803;52.308;19.096;2022-07-29T03:19:15;10.40;99.90
43185;DHT22;28803;52.308;19.096;2022-07-29T03:21:43;10.50;99.90
43185;DHT22;28803;52.308;19.096;2022-07-29T03:24:10;10.50;99.90
43185;DHT22;28803;52.308;19.096;2022-07-29T03:26:37;10.50;99.90
43185;DHT22;28803;52.308;19.096;2022-07-29T03:29:04;10.60;99.90
43185;DHT22;28803;52.308;19.096;2022-07-29T03:31:32;10.60;99.90
43185;DHT22;28803;52.308;19.096;2022-07-29T03:34:00;10.70;99.90
43185;DHT22;28803;52.308;19.096;2022-07-29T03:36:27;10.70;99.90
43185;DHT22;28803;52.308;19.096;2022-07-29T03:38:54;10.70;99.90
43185;DHT22;28803;52.308;19.096;2022-07-29T03:41:22;10.80;99.90
43185;DHT22;28803;52.308;19.096;2022-07-29T03:43:51;10.90;99.90
43185;DHT22;28803;52.308;19.096;2022-07-29T03:46:22;10.90;99.90
43185;DHT22;28803;52.308;19.096;2022-07-29T03:48:53;11.00;99.90
43185;DHT22;28803;52.308;19.096;2022-07-29T03:51:23;11.10;99.90
43185;DHT22;28803;52.308;19.096;2022-07-29T03:54:02;11.30;99.90
43185;DHT22;28803;52.308;19.096;2022-07-29T03:56:39;11.40;99.90
43185;DHT22;28803;52.308;19.096;2022-07-29T03:59:07;11.50;99.90
43185;DHT22;28803;52.308;19.096;2022-07-29T04:01:35;11.50;99.90
43185;DHT22;28803;52.308;19.096;2022-07-29T04:04:03;11.60;99.90
43185;DHT22;28803;52.308;19.096;2022-07-29T04:06:41;11.70;99.90
43185;DHT22;28803;52.308;19.096;2022-07-29T04:09:09;11.80;99.90
43185;DHT22;28803;52.308;19.096;2022-07-29T04:11:41;11.90;99.90
43185;DHT22;28803;52.308;19.096;2022-07-29T04:14:28;12.00;99.90
43185;DHT22;28803;52.308;19.096;2022-07-29T04:16:55;12.10;99.90
43185;DHT22;28803;52.308;19.096;2022-07-29T04:19:22;12.20;99.90
43185;DHT22;28803;52.308;19.096;2022-07-29T04:21:49;12.20;99.90
43185;DHT22;28803;52.308;19.096;2022-07-29T04:24:16;12.40;99.90
43185;DHT22;28803;52.308;19.096;2022-07-29T04:26:48;12.50;99.90
43185;DHT22;28803;52.308;19.096;2022-07-29T04:29:15;12.60;99.90
43185;DHT22;28803;52.308;19.096;2022-07-29T04:31:43;12.70;99.90
43185;DHT22;28803;52.308;19.096;2022-07-29T04:34:10;12.80;99.90
43185;DHT22;28803;52.308;19.096;2022-07-29T04:36:37;12.90;99.90
43185;DHT22;28803;52.308;19.096;2022-07-29T04:39:05;13.00;99.90
43185;DHT22;28803;52.308;19.096;2022-07-29T04:41:32;13.20;99.90
43185;DHT22;28803;52.308;19.096;2022-07-29T04:44:00;13.30;99.90
43185;DHT22;28803;52.308;19.096;2022-07-29T04:46:33;13.50;99.90
43185;DHT22;28803;52.308;19.096;2022-07-29T04:49:01;13.70;99.90
43185;DHT22;28803;52.308;19.096;2022-07-29T04:51:28;13.90;99.90
43185;DHT22;28803;52.308;19.096;2022-07-29T04:53:55;14.10;99.90
43185;DHT22;28803;52.308;19.096;2022-07-29T04:56:22;14.30;99.90
43185;DHT22;28803;52.308;19.096;2022-07-29T04:58:50;14.50;99.90
43185;DHT22;28803;52.308;19.096;2022-07-29T05:01:17;14.60;99.90
43185;DHT22;28803;52.308;19.096;2022-07-29T05:03:44;14.80;99.90
43185;DHT22;28803;52.308;19.096;2022-07-29T05:06:11;15.00;99.90
43185;DHT22;28803;52.308;19.096;2022-07-29T05:08:39;15.10;99.90
43185;DHT22;28803;52.308;19.096;2022-07-29T05:11:08;15.30;99.90
43185;DHT22;28803;52.308;19.096;2022-07-29T05:13:39;15.40;99.90
43185;DHT22;28803;52.308;19.096;2022-07-29T05:16:12;15.70;99.90
43185;DHT22;28803;52.308;19.096;2022-07-29T05:18:40;15.80;99.90
43185;DHT22;28803;52.308;19.096;2022-07-29T05:21:07;15.90;99.90
43185;DHT22;28803;52.308;19.096;2022-07-29T05:23:35;16.10;99.90
43185;DHT22;28803;52.308;19.096;2022-07-29T05:26:02;16.20;99.90
43185;DHT22;28803;52.308;19.096;2022-07-29T05:28:33;16.40;99.90
43185;DHT22;28803;52.308;19.096;2022-07-29T05:31:00;16.60;99.90
43185;DHT22;28803;52.308;19.096;2022-07-29T05:33:27;16.70;99.90
43185;DHT22;28803;52.308;19.096;2022-07-29T05:36:06;16.80;99.90
43185;DHT22;28803;52.308;19.096;2022-07-29T05:38:35;17.00;99.90
43185;DHT22;28803;52.308;19.096;2022-07-29T05:41:03;17.10;99.90
43185;DHT22;28803;52.308;19.096;2022-07-29T05:43:30;17.30;99.90
43185;DHT22;28803;52.308;19.096;2022-07-29T05:45:57;17.40;99.90
43185;DHT22;28803;52.308;19.096;2022-07-29T05:48:25;17.60;99.90
43185;DHT22;28803;52.308;19.096;2022-07-29T05:50:52;17.70;99.90
43185;DHT22;28803;52.308;19.096;2022-07-29T05:53:20;17.70;99.90
43185;DHT22;28803;52.308;19.096;2022-07-29T05:55:48;17.80;99.90
43185;DHT22;28803;52.308;19.096;2022-07-29T05:58:15;17.90;99.90
43185;DHT22;28803;52.308;19.096;2022-07-29T06:00:42;18.00;99.90
43185;DHT22;28803;52.308;19.096;2022-07-29T06:03:09;18.20;99.90
43185;DHT22;28803;52.308;19.096;2022-07-29T06:05:37;18.30;99.90
43185;DHT22;28803;52.308;19.096;2022-07-29T06:08:04;18.40;99.90
43185;DHT22;28803;52.308;19.096;2022-07-29T06:10:37;18.50;99.90
43185;DHT22;28803;52.308;19.096;2022-07-29T06:13:04;18.60;99.90
43185;DHT22;28803;52.308;19.096;2022-07-29T06:15:31;18.80;99.90
43185;DHT22;28803;52.308;19.096;2022-07-29T06:17:58;19.00;99.90
43185;DHT22;28803;52.308;19.096;2022-07-29T06:20:31;19.00;99.90
43185;DHT22;28803;52.308;19.096;2022-07-29T06:22:59;19.20;99.90
43185;DHT22;28803;52.308;19.096;2022-07-29T06:25:27;19.40;99.90
43185;DHT22;28803;52.308;19.096;2022-07-29T06:27:56;19.70;99.90
43185;DHT22;28803;52.308;19.096;2022-07-29T06:30:23;19.90;99.90
43185;DHT22;28803;52.308;19.096;2022-07-29T06:32:51;20.00;99.90
43185;DHT22;28803;52.308;19.096;2022-07-29T06:35:18;20.40;99.90
43185;DHT22;28803;52.308;19.096;2022-07-29T06:38:05;20.70;99.90
43185;DHT22;28803;52.308;19.096;2022-07-29T06:40:52;20.90;99.90
43185;DHT22;28803;52.308;19.096;2022-07-29T06:43:37;21.20;99.90
43185;DHT22;28803;52.308;19.096;2022-07-29T06:46:19;21.60;99.90
43185;DHT22;28803;52.308;19.096;2022-07-29T06:48:47;22.30;99.90
43185;DHT22;28803;52.308;19.096;2022-07-29T06:51:14;22.60;99.90
43185;DHT22;28803;52.308;19.096;2022-07-29T06:53:42;22.90;99.20
43185;DHT22;28803;52.308;19.096;2022-07-29T06:56:31;23.30;98.10
43185;DHT22;28803;52.308;19.096;2022-07-29T06:59:05;23.40;97.50
43185;DHT22;28803;52.308;19.096;2022-07-29T07:01:33;24.00;96.80
43185;DHT22;28803;52.308;19.096;2022-07-29T07:04:00;24.20;94.40
43185;DHT22;28803;52.308;19.096;2022-07-29T07:06:27;24.60;93.30
43185;DHT22;28803;52.308;19.096;2022-07-29T07:08:54;24.70;93.80
43185;DHT22;28803;52.308;19.096;2022-07-29T07:11:21;25.30;92.60
43185;DHT22;28803;52.308;19.096;2022-07-29T07:13:48;25.90;91.10
43185;DHT22;28803;52.308;19.096;2022-07-29T07:16:15;25.90;88.40
43185;DHT22;28803;52.308;19.096;2022-07-29T07:18:43;26.20;87.30
43185;DHT22;28803;52.308;19.096;2022-07-29T07:21:12;26.90;83.40
43185;DHT22;28803;52.308;19.096;2022-07-29T07:23:46;27.30;79.80
43185;DHT22;28803;52.308;19.096;2022-07-29T07:26:14;27.30;80.10
43185;DHT22;28803;52.308;19.096;2022-07-29T07:28:41;27.60;77.10
43185;DHT22;28803;52.308;19.096;2022-07-29T07:31:08;27.90;74.90
43185;DHT22;28803;52.308;19.096;2022-07-29T07:33:36;28.00;76.70
43185;DHT22;28803;52.308;19.096;2022-07-29T07:36:03;28.10;73.00
43185;DHT22;28803;52.308;19.096;2022-07-29T07:38:30;28.40;71.60
43185;DHT22;28803;52.308;19.096;2022-07-29T07:40:57;28.60;71.50
43185;DHT22;28803;52.308;19.096;2022-07-29T07:43:24;28.90;70.40
43185;DHT22;28803;52.308;19.096;2022-07-29T07:45:51;29.60;67.00
43185;DHT22;28803;52.308;19.096;2022-07-29T07:48:18;29.20;66.40
43185;DHT22;28803;52.308;19.096;2022-07-29T07:50:45;28.40;67.30
43185;DHT22;28803;52.308;19.096;2022-07-29T07:53:12;27.60;67.30
43185;DHT22;28803;52.308;19.096;2022-07-29T07:55:41;27.40;69.10
43185;DHT22;28803;52.308;19.096;2022-07-29T07:58:28;26.60;70.30
43185;DHT22;28803;52.308;19.096;2022-07-29T08:00:55;26.10;71.90
43185;DHT22;28803;52.308;19.096;2022-07-29T08:03:22;25.50;74.00
43185;DHT22;28803;52.308;19.096;2022-07-29T08:05:50;25.30;75.00
43185;DHT22;28803;52.308;19.096;2022-07-29T08:08:21;26.20;73.10
43185;DHT22;28803;52.308;19.096;2022-07-29T08:10:48;26.70;69.10
43185;DHT22;28803;52.308;19.096;2022-07-29T08:13:25;27.40;71.50
43185;DHT22;28803;52.308;19.096;2022-07-29T08:15:54;28.60;67.30
43185;DHT22;28803;52.308;19.096;2022-07-29T08:18:26;29.70;66.70
43185;DHT22;28803;52.308;19.096;2022-07-29T08:20:54;30.00;62.80
43185;DHT22;28803;52.308;19.096;2022-07-29T08:23:21;30.20;62.40
43185;DHT22;28803;52.308;19.096;2022-07-29T08:25:51;30.20;61.70
43185;DHT22;28803;52.308;19.096;2022-07-29T08:28:20;30.40;60.70
43185;DHT22;28803;52.308;19.096;2022-07-29T08:30:52;30.50;60.10
43185;DHT22;28803;52.308;19.096;2022-07-29T08:33:19;30.90;58.10
43185;DHT22;28803;52.308;19.096;2022-07-29T08:35:46;30.90;58.70
43185;DHT22;28803;52.308;19.096;2022-07-29T08:38:13;31.30;57.40
43185;DHT22;28803;52.308;19.096;2022-07-29T08:40:40;31.30;57.30
43185;DHT22;28803;52.308;19.096;2022-07-29T08:43:08;31.50;56.50
43185;DHT22;28803;52.308;19.096;2022-07-29T08:45:42;32.10;56.10
43185;DHT22;28803;52.308;19.096;2022-07-29T08:48:15;32.80;54.30
43185;DHT22;28803;52.308;19.096;2022-07-29T08:50:43;31.80;55.60
43185;DHT22;28803;52.308;19.096;2022-07-29T08:53:14;30.20;56.30
43185;DHT22;28803;52.308;19.096;2022-07-29T08:55:46;29.10;60.40
43185;DHT22;28803;52.308;19.096;2022-07-29T08:58:14;28.30;59.60
43185;DHT22;28803;52.308;19.096;2022-07-29T09:00:48;27.80;61.10
43185;DHT22;28803;52.308;19.096;2022-07-29T09:03:19;27.80;62.00
43185;DHT22;28803;52.308;19.096;2022-07-29T09:05:47;27.50;62.10
43185;DHT22;28803;52.308;19.096;2022-07-29T09:08:15;27.10;62.00
43185;DHT22;28803;52.308;19.096;2022-07-29T09:10:43;27.20;64.00
43185;DHT22;28803;52.308;19.096;2022-07-29T09:13:11;26.80;63.80
43185;DHT22;28803;52.308;19.096;2022-07-29T09:15:38;26.40;64.40
43185;DHT22;28803;52.308;19.096;2022-07-29T09:18:05;26.00;64.70
43185;DHT22;28803;52.308;19.096;2022-07-29T09:20:32;25.80;66.70
43185;DHT22;28803;52.308;19.096;2022-07-29T09:23:19;25.50;63.70
43185;DHT22;28803;52.308;19.096;2022-07-29T09:25:50;25.10;64.90
43185;DHT22;28803;52.308;19.096;2022-07-29T09:28:17;25.00;65.90
43185;DHT22;28803;52.308;19.096;2022-07-29T09:30:53;24.90;65.30
43185;DHT22;28803;52.308;19.096;2022-07-29T09:33:21;25.00;66.40
43185;DHT22;28803;52.308;19.096;2022-07-29T09:36:06;25.00;65.50
43185;DHT22;28803;52.308;19.096;2022-07-29T09:38:34;24.90;65.30
43185;DHT22;28803;52.308;19.096;2022-07-29T09:41:04;24.80;64.90
43185;DHT22;28803;52.308;19.096;2022-07-29T09:43:33;25.10;63.80
43185;DHT22;28803;52.308;19.096;2022-07-29T09:46:13;25.50;65.10
43185;DHT22;28803;52.308;19.096;2022-07-29T09:48:41;26.10;63.60
43185;DHT22;28803;52.308;19.096;2022-07-29T09:51:18;26.50;62.20
43185;DHT22;28803;52.308;19.096;2022-07-29T09:53:52;27.20;60.60
43185;DHT22;28803;52.308;19.096;2022-07-29T09:56:19;27.70;60.70
43185;DHT22;28803;52.308;19.096;2022-07-29T09:58:46;28.60;59.30
43185;DHT22;28803;52.308;19.096;2022-07-29T10:01:13;29.90;56.10
43185;DHT22;28803;52.308;19.096;2022-07-29T10:03:52;31.40;55.80
43185;DHT22;28803;52.308;19.096;2022-07-29T10:06:19;32.60;54.30
43185;DHT22;28803;52.308;19.096;2022-07-29T10:08:46;32.60;51.60
43185;DHT22;28803;52.308;19.096;2022-07-29T10:11:15;32.10;52.60
43185;DHT22;28803;52.308;19.096;2022-07-29T10:13:44;32.30;52.30
43185;DHT22;28803;52.308;19.096;2022-07-29T10:16:12;32.30;51.40
43185;DHT22;28803;52.308;19.096;2022-07-29T10:18:44;31.10;52.50
43185;DHT22;28803;52.308;19.096;2022-07-29T10:21:12;30.10;55.30
43185;DHT22;28803;52.308;19.096;2022-07-29T10:23:59;29.70;55.70
43185;DHT22;28803;52.308;19.096;2022-07-29T10:26:29;29.70;54.10
43185;DHT22;28803;52.308;19.096;2022-07-29T10:28:56;29.70;55.20
43185;DHT22;28803;52.308;19.096;2022-07-29T10:31:40;30.50;55.40
43185;DHT22;28803;52.308;19.096;2022-07-29T10:34:23;29.50;55.60
43185;DHT22;28803;52.308;19.096;2022-07-29T10:37:12;28.10;56.40
43185;DHT22;28803;52.308;19.096;2022-07-29T10:40:00;27.30;59.90
43185;DHT22;28803;52.308;19.096;2022-07-29T10:42:55;26.90;60.10
43185;DHT22;28803;52.308;19.096;2022-07-29T10:45:27;26.70;60.90
43185;DHT22;28803;52.308;19.096;2022-07-29T10:48:03;26.50;60.00
43185;DHT22;28803;52.308;19.096;2022-07-29T10:53:23;25.90;59.80
43185;DHT22;28803;52.308;19.096;2022-07-29T10:55:52;25.50;60.80
43185;DHT22;28803;52.308;19.096;2022-07-29T10:58:21;25.20;61.60
43185;DHT22;28803;52.308;19.096;2022-07-29T11:00:51;25.10;60.60
43185;DHT22;28803;52.308;19.096;2022-07-29T11:03:45;25.30;62.20
43185;DHT22;28803;52.308;19.096;2022-07-29T11:06:16;25.70;61.60
43185;DHT22;28803;52.308;19.096;2022-07-29T11:09:16;26.20;60.70
43185;DHT22;28803;52.308;19.096;2022-07-29T11:11:46;26.90;58.90
43185;DHT22;28803;52.308;19.096;2022-07-29T11:14:18;27.50;59.50
43185;DHT22;28803;52.308;19.096;2022-07-29T11:17:06;27.40;56.80
43185;DHT22;28803;52.308;19.096;2022-07-29T11:19:35;27.10;57.20
43185;DHT22;28803;52.308;19.096;2022-07-29T11:22:08;26.90;58.30
43185;DHT22;28803;52.308;19.096;2022-07-29T11:24:37;26.70;59.20
43185;DHT22;28803;52.308;19.096;2022-07-29T11:27:19;26.60;59.70
43185;DHT22;28803;52.308;19.096;2022-07-29T11:29:55;26.70;60.80
43185;DHT22;28803;52.308;19.096;2022-07-29T11:32:36;26.90;62.20
43185;DHT22;28803;52.308;19.096;2022-07-29T11:38:25;26.70;60.50
43185;DHT22;28803;52.308;19.096;2022-07-29T11:41:23;26.60;60.30
43185;DHT22;28803;52.308;19.096;2022-07-29T11:43:56;27.00;61.20
43185;DHT22;28803;52.308;19.096;2022-07-29T11:46:44;27.40;62.90
43185;DHT22;28803;52.308;19.096;2022-07-29T11:49:13;27.80;60.40
43185;DHT22;28803;52.308;19.096;2022-07-29T11:51:41;27.90;59.70
43185;DHT22;28803;52.308;19.096;2022-07-29T11:54:17;27.70;61.50
43185;DHT22;28803;52.308;19.096;2022-07-29T11:56:53;27.60;60.40
43185;DHT22;28803;52.308;19.096;2022-07-29T11:59:21;27.10;59.10
43185;DHT22;28803;52.308;19.096;2022-07-29T12:01:59;26.70;61.60
43185;DHT22;28803;52.308;19.096;2022-07-29T12:04:56;26.40;62.60
43185;DHT22;28803;52.308;19.096;2022-07-29T12:07:31;26.30;61.80
43185;DHT22;28803;52.308;19.096;2022-07-29T12:10:02;26.40;62.50
43185;DHT22;28803;52.308;19.096;2022-07-29T12:12:32;26.40;61.70
43185;DHT22;28803;52.308;19.096;2022-07-29T12:15:15;26.30;62.00
43185;DHT22;28803;52.308;19.096;2022-07-29T12:17:47;26.40;61.60
43185;DHT22;28803;52.308;19.096;2022-07-29T12:20:27;26.50;62.80
43185;DHT22;28803;52.308;19.096;2022-07-29T12:22:55;26.20;61.50
43185;DHT22;28803;52.308;19.096;2022-07-29T12:25:23;26.00;62.20
43185;DHT22;28803;52.308;19.096;2022-07-29T12:28:01;26.10;61.50
43185;DHT22;28803;52.308;19.096;2022-07-29T12:30:58;26.30;62.70
43185;DHT22;28803;52.308;19.096;2022-07-29T12:33:27;26.30;63.90
43185;DHT22;28803;52.308;19.096;2022-07-29T12:35:57;26.20;61.90
43185;DHT22;28803;52.308;19.096;2022-07-29T12:38:40;25.90;61.10
43185;DHT22;28803;52.308;19.096;2022-07-29T12:41:07;25.70;59.30
43185;DHT22;28803;52.308;19.096;2022-07-29T12:43:34;25.80;60.90
43185;DHT22;28803;52.308;19.096;2022-07-29T12:46:13;26.00;60.60
43185;DHT22;28803;52.308;19.096;2022-07-29T12:48:43;26.20;61.80
43185;DHT22;28803;52.308;19.096;2022-07-29T12:51:11;26.30;61.30
43185;DHT22;28803;52.308;19.096;2022-07-29T12:53:41;26.20;60.90
43185;DHT22;28803;52.308;19.096;2022-07-29T12:56:15;26.30;62.10
43185;DHT22;28803;52.308;19.096;2022-07-29T12:59:19;26.20;61.80
43185;DHT22;28803;52.308;19.096;2022-07-29T13:01:49;26.10;62.10
43185;DHT22;28803;52.308;19.096;2022-07-29T13:04:30;26.10;60.60
43185;DHT22;28803;52.308;19.096;2022-07-29T13:07:02;26.10;59.90
43185;DHT22;28803;52.308;19.096;2022-07-29T13:09:42;26.30;60.20
43185;DHT22;28803;52.308;19.096;2022-07-29T13:12:12;26.10;59.70
43185;DHT22;28803;52.308;19.096;2022-07-29T13:14:44;25.90;60.60
43185;DHT22;28803;52.308;19.096;2022-07-29T13:19:41;25.60;62.30
43185;DHT22;28803;52.308;19.096;2022-07-29T13:22:19;25.80;62.50
43185;DHT22;28803;52.308;19.096;2022-07-29T13:24:57;25.80;61.30
43185;DHT22;28803;52.308;19.096;2022-07-29T13:27:27;25.70;61.40
43185;DHT22;28803;52.308;19.096;2022-07-29T13:29:55;25.90;61.80
43185;DHT22;28803;52.308;19.096;2022-07-29T13:32:25;26.10;62.80
43185;DHT22;28803;52.308;19.096;2022-07-29T13:34:55;26.40;62.30
43185;DHT22;28803;52.308;19.096;2022-07-29T13:37:23;26.40;61.10
43185;DHT22;28803;52.308;19.096;2022-07-29T13:39:50;26.30;61.60
43185;DHT22;28803;52.308;19.096;2022-07-29T13:42:19;26.20;62.30
43185;DHT22;28803;52.308;19.096;2022-07-29T13:44:46;26.20;62.10
43185;DHT22;28803;52.308;19.096;2022-07-29T13:47:15;26.10;61.90
43185;DHT22;28803;52.308;19.096;2022-07-29T13:49:42;26.20;61.00
43185;DHT22;28803;52.308;19.096;2022-07-29T13:52:10;26.30;60.80
43185;DHT22;28803;52.308;19.096;2022-07-29T13:54:37;26.20;62.20
43185;DHT22;28803;52.308;19.096;2022-07-29T13:57:09;27.00;60.00
43185;DHT22;28803;52.308;19.096;2022-07-29T13:59:39;28.20;59.60
43185;DHT22;28803;52.308;19.096;2022-07-29T14:02:06;29.70;56.90
43185;DHT22;28803;52.308;19.096;2022-07-29T14:04:34;30.60;55.10
43185;DHT22;28803;52.308;19.096;2022-07-29T14:07:01;30.70;54.50
43185;DHT22;28803;52.308;19.096;2022-07-29T14:09:30;30.30;55.00
43185;DHT22;28803;52.308;19.096;2022-07-29T14:12:08;30.70;55.50
43185;DHT22;28803;52.308;19.096;2022-07-29T14:14:35;31.20;53.80
43185;DHT22;28803;52.308;19.096;2022-07-29T14:17:04;30.90;53.80
43185;DHT22;28803;52.308;19.096;2022-07-29T14:19:34;31.10;54.70
43185;DHT22;28803;52.308;19.096;2022-07-29T14:22:06;31.10;54.00
43185;DHT22;28803;52.308;19.096;2022-07-29T14:24:35;30.30;53.90
43185;DHT22;28803;52.308;19.096;2022-07-29T14:27:03;29.40;55.60
43185;DHT22;28803;52.308;19.096;2022-07-29T14:29:31;29.30;55.90
43185;DHT22;28803;52.308;19.096;2022-07-29T14:32:08;29.00;56.50
43185;DHT22;28803;52.308;19.096;2022-07-29T14:34:37;28.70;57.40
43185;DHT22;28803;52.308;19.096;2022-07-29T14:37:05;28.40;57.20
43185;DHT22;28803;52.308;19.096;2022-07-29T14:39:34;27.80;59.40
43185;DHT22;28803;52.308;19.096;2022-07-29T14:42:10;27.50;58.90
43185;DHT22;28803;52.308;19.096;2022-07-29T14:44:39;27.60;59.20
43185;DHT22;28803;52.308;19.096;2022-07-29T14:47:07;27.40;60.20
43185;DHT22;28803;52.308;19.096;2022-07-29T14:49:35;27.50;60.10
43185;DHT22;28803;52.308;19.096;2022-07-29T14:52:02;27.70;60.30
43185;DHT22;28803;52.308;19.096;2022-07-29T14:54:29;27.90;59.20
43185;DHT22;28803;52.308;19.096;2022-07-29T14:56:56;27.60;60.00
43185;DHT22;28803;52.308;19.096;2022-07-29T14:59:25;27.10;60.10
43185;DHT22;28803;52.308;19.096;2022-07-29T15:01:52;26.60;60.50
43185;DHT22;28803;52.308;19.096;2022-07-29T15:04:20;26.50;61.60
43185;DHT22;28803;52.308;19.096;2022-07-29T15:06:47;26.40;61.30
43185;DHT22;28803;52.308;19.096;2022-07-29T15:09:14;26.60;61.10
43185;DHT22;28803;52.308;19.096;2022-07-29T15:11:41;27.30;61.10
43185;DHT22;28803;52.308;19.096;2022-07-29T15:14:08;27.90;59.50
43185;DHT22;28803;52.308;19.096;2022-07-29T15:16:37;28.20;57.60
43185;DHT22;28803;52.308;19.096;2022-07-29T15:19:08;27.80;58.30
43185;DHT22;28803;52.308;19.096;2022-07-29T15:21:35;26.90;59.50
43185;DHT22;28803;52.308;19.096;2022-07-29T15:24:18;26.30;60.00
43185;DHT22;28803;52.308;19.096;2022-07-29T15:26:46;25.80;61.60
43185;DHT22;28803;52.308;19.096;2022-07-29T15:29:13;25.50;62.40
43185;DHT22;28803;52.308;19.096;2022-07-29T15:31:41;25.30;63.10
43185;DHT22;28803;52.308;19.096;2022-07-29T15:34:08;25.10;62.90
43185;DHT22;28803;52.308;19.096;2022-07-29T15:36:35;24.90;63.40
43185;DHT22;28803;52.308;19.096;2022-07-29T15:39:20;24.60;63.40
43185;DHT22;28803;52.308;19.096;2022-07-29T15:41:48;24.60;64.30
43185;DHT22;28803;52.308;19.096;2022-07-29T15:44:15;24.40;64.50
43185;DHT22;28803;52.308;19.096;2022-07-29T15:46:43;24.30;64.70
43185;DHT22;28803;52.308;19.096;2022-07-29T15:49:34;24.40;66.20
43185;DHT22;28803;52.308;19.096;2022-07-29T15:52:18;24.40;64.30
43185;DHT22;28803;52.308;19.096;2022-07-29T15:54:55;24.50;64.50
43185;DHT22;28803;52.308;19.096;2022-07-29T15:57:24;24.50;64.70